sensor_id;sensor_type;location;lat;lon;timestamp;pressure;altitude;pressure_sealevel;temperature;humidity
44872;BME280;30602;51.060;17.226;2023-01-25T00:03:01;103721.55;;;2.21;100.00
44872;BME280;30602;51.060;17.226;2023-01-25T00:06:18;103719.88;;;2.14;100.00
44872;BME280;30602;51.060;17.226;2023-01-25T00:09:43;103721.23;;;2.14;100.00
44872;BME280;30602;51.060;17.226;2023-01-25T00:12:59;103716.50;;;2.15;100.00
44872;BME280;30602;51.060;17.226;2023-01-25T00:16:17;103711.59;;;2.19;100.00
44872;BME280;30602;51.060;17.226;2023-01-25T00:19:35;103708.79;;;2.21;100.00
44872;BME280;30602;51.060;17.226;2023-01-25T00:22:49;103708.33;;;2.26;100.00
44872;BME280;30602;51.060;17.226;2023-01-25T00:26:00;103708.02;;;2.20;100.00
44872;BME280;30602;51.060;17.226;2023-01-25T00:29:44;103708.98;;;2.21;100.00
44872;BME280;30602;51.060;17.226;2023-01-25T00:33:30;103706.52;;;2.20;100.00
44872;BME280;30602;51.060;17.226;2023-01-25T00:36:41;103710.92;;;2.13;100.00
44872;BME280;30602;51.060;17.226;2023-01-25T00:40:25;103701.99;;;2.22;100.00
44872;BME280;30602;51.060;17.226;2023-01-25T00:44:15;103696.46;;;2.24;100.00
44872;BME280;30602;51.060;17.226;2023-01-25T00:47:52;103689.50;;;2.23;100.00
44872;BME280;30602;51.060;17.226;2023-01-25T00:51:23;103691.20;;;2.22;100.00
44872;BME280;30602;51.060;17.226;2023-01-25T00:54:36;103694.32;;;2.21;100.00
44872;BME280;30602;51.060;17.226;2023-01-25T00:57:53;103689.87;;;2.20;100.00
44872;BME280;30602;51.060;17.226;2023-01-25T01:01:26;103694.10;;;2.22;100.00
44872;BME280;30602;51.060;17.226;2023-01-25T01:04:42;103683.38;;;2.19;100.00
44872;BME280;30602;51.060;17.226;2023-01-25T01:07:57;103676.41;;;2.20;100.00
44872;BME280;30602;51.060;17.226;2023-01-25T01:11:12;103667.76;;;2.23;100.00
44872;BME280;30602;51.060;17.226;2023-01-25T01:14:22;103660.24;;;2.27;100.00
44872;BME280;30602;51.060;17.226;2023-01-25T01:17:53;103655.91;;;2.27;100.00
44872;BME280;30602;51.060;17.226;2023-01-25T01:21:05;103651.60;;;2.28;100.00
44872;BME280;30602;51.060;17.226;2023-01-25T01:24:34;103647.92;;;2.26;100.00
44872;BME280;30602;51.060;17.226;2023-01-25T01:28:36;103644.38;;;2.27;100.00
44872;BME280;30602;51.060;17.226;2023-01-25T01:31:51;103636.34;;;2.24;100.00
44872;BME280;30602;51.060;17.226;2023-01-25T01:35:04;103640.33;;;2.20;100.00
44872;BME280;30602;51.060;17.226;2023-01-25T01:38:34;103639.78;;;2.19;100.00
44872;BME280;30602;51.060;17.226;2023-01-25T01:41:47;103638.30;;;2.16;100.00
44872;BME280;30602;51.060;17.226;2023-01-25T01:44:58;103638.83;;;2.16;100.00
44872;BME280;30602;51.060;17.226;2023-01-25T01:52:24;103632.66;;;2.17;100.00
44872;BME280;30602;51.060;17.226;2023-01-25T01:56:11;103624.95;;;2.13;100.00
44872;BME280;30602;51.060;17.226;2023-01-25T02:03:40;103615.28;;;2.16;100.00
44872;BME280;30602;51.060;17.226;2023-01-25T02:07:47;103617.84;;;2.22;100.00
44872;BME280;30602;51.060;17.226;2023-01-25T02:11:12;103599.30;;;2.12;100.00
44872;BME280;30602;51.060;17.226;2023-01-25T02:14:28;103617.14;;;2.27;100.00
44872;BME280;30602;51.060;17.226;2023-01-25T02:18:01;103617.58;;;2.25;100.00
44872;BME280;30602;51.060;17.226;2023-01-25T02:22:11;103621.83;;;2.24;100.00
44872;BME280;30602;51.060;17.226;2023-01-25T02:25:28;103621.40;;;2.28;100.00
44872;BME280;30602;51.060;17.226;2023-01-25T02:32:04;103621.85;;;2.22;100.00
44872;BME280;30602;51.060;17.226;2023-01-25T02:35:21;103616.60;;;2.19;100.00
44872;BME280;30602;51.060;17.226;2023-01-25T02:38:53;103610.16;;;2.16;100.00
44872;BME280;30602;51.060;17.226;2023-01-25T02:42:06;103615.66;;;2.20;100.00
44872;BME280;30602;51.060;17.226;2023-01-25T02:45:22;103610.59;;;2.17;100.00
44872;BME280;30602;51.060;17.226;2023-01-25T02:48:38;103610.23;;;2.17;100.00
44872;BME280;30602;51.060;17.226;2023-01-25T02:51:55;103608.53;;;2.16;100.00
44872;BME280;30602;51.060;17.226;2023-01-25T02:55:46;103611.02;;;2.16;100.00
44872;BME280;30602;51.060;17.226;2023-01-25T02:59:05;103608.68;;;2.14;100.00
44872;BME280;30602;51.060;17.226;2023-01-25T03:02:20;103609.70;;;2.18;100.00
44872;BME280;30602;51.060;17.226;2023-01-25T03:05:43;103607.24;;;2.21;100.00
44872;BME280;30602;51.060;17.226;2023-01-25T03:09:00;103599.56;;;2.18;100.00
44872;BME280;30602;51.060;17.226;2023-01-25T03:12:35;103594.71;;;2.14;100.00
44872;BME280;30602;51.060;17.226;2023-01-25T03:16:08;103593.93;;;2.13;100.00
44872;BME280;30602;51.060;17.226;2023-01-25T03:19:19;103591.09;;;2.12;100.00
44872;BME280;30602;51.060;17.226;2023-01-25T03:23:01;103584.70;;;2.12;100.00
44872;BME280;30602;51.060;17.226;2023-01-25T03:26:17;103585.70;;;2.15;100.00
44872;BME280;30602;51.060;17.226;2023-01-25T03:30:13;103586.98;;;2.15;100.00
44872;BME280;30602;51.060;17.226;2023-01-25T03:33:33;103584.53;;;2.13;100.00
44872;BME280;30602;51.060;17.226;2023-01-25T03:36:47;103578.39;;;2.07;100.00
44872;BME280;30602;51.060;17.226;2023-01-25T03:40:09;103576.93;;;2.07;100.00
44872;BME280;30602;51.060;17.226;2023-01-25T03:43:20;103577.20;;;2.05;100.00
44872;BME280;30602;51.060;17.226;2023-01-25T03:46:30;103573.70;;;2.02;100.00
44872;BME280;30602;51.060;17.226;2023-01-25T03:49:44;103573.59;;;1.95;100.00
44872;BME280;30602;51.060;17.226;2023-01-25T03:52:54;103571.78;;;2.01;100.00
44872;BME280;30602;51.060;17.226;2023-01-25T03:56:16;103564.11;;;2.02;100.00
44872;BME280;30602;51.060;17.226;2023-01-25T03:59:34;103567.26;;;2.08;100.00
44872;BME280;30602;51.060;17.226;2023-01-25T04:03:07;103562.59;;;2.09;100.00
44872;BME280;30602;51.060;17.226;2023-01-25T04:07:09;103558.66;;;2.09;100.00
44872;BME280;30602;51.060;17.226;2023-01-25T04:11:09;103549.13;;;2.05;100.00
44872;BME280;30602;51.060;17.226;2023-01-25T04:14:18;103554.26;;;2.09;100.00
44872;BME280;30602;51.060;17.226;2023-01-25T04:17:42;103548.06;;;2.03;100.00
44872;BME280;30602;51.060;17.226;2023-01-25T04:20:57;103547.03;;;1.98;100.00
44872;BME280;30602;51.060;17.226;2023-01-25T04:24:07;103541.82;;;1.98;100.00
44872;BME280;30602;51.060;17.226;2023-01-25T04:27:42;103541.55;;;2.00;100.00
44872;BME280;30602;51.060;17.226;2023-01-25T04:31:26;103537.57;;;2.05;100.00
44872;BME280;30602;51.060;17.226;2023-01-25T04:34:39;103536.23;;;2.05;100.00
44872;BME280;30602;51.060;17.226;2023-01-25T04:37:55;103534.47;;;2.03;100.00
44872;BME280;30602;51.060;17.226;2023-01-25T04:41:19;103527.25;;;1.97;100.00
44872;BME280;30602;51.060;17.226;2023-01-25T04:44:34;103531.10;;;2.01;100.00
44872;BME280;30602;51.060;17.226;2023-01-25T04:47:42;103534.50;;;2.04;100.00
44872;BME280;30602;51.060;17.226;2023-01-25T04:51:16;103523.62;;;1.99;100.00
44872;BME280;30602;51.060;17.226;2023-01-25T04:54:31;103527.25;;;2.06;100.00
44872;BME280;30602;51.060;17.226;2023-01-25T04:58:14;103523.28;;;2.10;100.00
44872;BME280;30602;51.060;17.226;2023-01-25T05:01:27;103520.42;;;2.07;100.00
44872;BME280;30602;51.060;17.226;2023-01-25T05:05:34;103517.66;;;2.06;100.00
44872;BME280;30602;51.060;17.226;2023-01-25T05:08:45;103514.13;;;2.04;100.00
44872;BME280;30602;51.060;17.226;2023-01-25T05:12:15;103510.51;;;2.02;100.00
44872;BME280;30602;51.060;17.226;2023-01-25T05:15:59;103505.70;;;1.99;100.00
44872;BME280;30602;51.060;17.226;2023-01-25T05:19:48;103507.19;;;2.03;100.00
44872;BME280;30602;51.060;17.226;2023-01-25T05:23:00;103504.45;;;2.01;100.00
44872;BME280;30602;51.060;17.226;2023-01-25T05:26:49;103503.58;;;2.02;100.00
44872;BME280;30602;51.060;17.226;2023-01-25T05:30:11;103501.63;;;2.02;100.00
44872;BME280;30602;51.060;17.226;2023-01-25T05:33:19;103495.68;;;1.98;100.00
44872;BME280;30602;51.060;17.226;2023-01-25T05:36:58;103498.67;;;1.96;100.00
44872;BME280;30602;51.060;17.226;2023-01-25T05:40:50;103495.66;;;1.93;100.00
44872;BME280;30602;51.060;17.226;2023-01-25T05:44:04;103493.90;;;1.95;100.00
44872;BME280;30602;51.060;17.226;2023-01-25T05:47:20;103491.48;;;1.94;100.00
44872;BME280;30602;51.060;17.226;2023-01-25T05:50:31;103489.22;;;1.99;100.00
44872;BME280;30602;51.060;17.226;2023-01-25T05:53:58;103493.40;;;1.97;100.00
44872;BME280;30602;51.060;17.226;2023-01-25T05:57:24;103489.22;;;1.98;100.00
44872;BME280;30602;51.060;17.226;2023-01-25T06:00:41;103484.64;;;1.98;100.00
44872;BME280;30602;51.060;17.226;2023-01-25T06:04:23;103477.52;;;1.95;100.00
44872;BME280;30602;51.060;17.226;2023-01-25T06:08:11;103481.48;;;1.95;100.00
44872;BME280;30602;51.060;17.226;2023-01-25T06:11:26;103485.31;;;1.97;100.00
44872;BME280;30602;51.060;17.226;2023-01-25T06:14:41;103482.99;;;1.95;100.00
44872;BME280;30602;51.060;17.226;2023-01-25T06:18:12;103475.21;;;1.90;100.00
44872;BME280;30602;51.060;17.226;2023-01-25T06:22:11;103481.46;;;1.92;100.00
44872;BME280;30602;51.060;17.226;2023-01-25T06:25:32;103479.41;;;1.96;100.00
44872;BME280;30602;51.060;17.226;2023-01-25T06:29:06;103480.54;;;1.92;100.00
44872;BME280;30602;51.060;17.226;2023-01-25T06:32:24;103482.86;;;1.92;100.00
44872;BME280;30602;51.060;17.226;2023-01-25T06:35:36;103480.15;;;1.88;100.00
44872;BME280;30602;51.060;17.226;2023-01-25T06:39:12;103478.76;;;1.88;100.00
44872;BME280;30602;51.060;17.226;2023-01-25T06:42:26;103477.13;;;1.92;100.00
44872;BME280;30602;51.060;17.226;2023-01-25T06:45:37;103478.92;;;1.92;100.00
44872;BME280;30602;51.060;17.226;2023-01-25T06:48:49;103475.37;;;1.91;100.00
44872;BME280;30602;51.060;17.226;2023-01-25T06:52:02;103470.40;;;1.87;100.00
44872;BME280;30602;51.060;17.226;2023-01-25T06:55:30;103466.58;;;1.89;100.00
44872;BME280;30602;51.060;17.226;2023-01-25T06:58:44;103459.00;;;1.89;100.00
44872;BME280;30602;51.060;17.226;2023-01-25T07:01:54;103455.68;;;1.89;100.00
44872;BME280;30602;51.060;17.226;2023-01-25T07:05:14;103453.93;;;1.88;100.00
44872;BME280;30602;51.060;17.226;2023-01-25T07:08:29;103452.22;;;1.88;100.00
44872;BME280;30602;51.060;17.226;2023-01-25T07:11:42;103449.20;;;1.87;100.00
44872;BME280;30602;51.060;17.226;2023-01-25T07:14:58;103450.23;;;1.85;100.00
44872;BME280;30602;51.060;17.226;2023-01-25T07:18:08;103445.68;;;1.85;100.00
44872;BME280;30602;51.060;17.226;2023-01-25T07:21:21;103444.21;;;1.77;100.00
44872;BME280;30602;51.060;17.226;2023-01-25T07:24:35;103443.43;;;1.83;100.00
44872;BME280;30602;51.060;17.226;2023-01-25T07:27:59;103441.34;;;1.84;100.00
44872;BME280;30602;51.060;17.226;2023-01-25T07:31:11;103445.33;;;1.84;100.00
44872;BME280;30602;51.060;17.226;2023-01-25T07:34:32;103450.46;;;1.87;100.00
44872;BME280;30602;51.060;17.226;2023-01-25T07:37:54;103449.46;;;1.95;100.00
44872;BME280;30602;51.060;17.226;2023-01-25T07:41:06;103444.27;;;1.97;100.00
44872;BME280;30602;51.060;17.226;2023-01-25T07:44:25;103437.72;;;1.98;100.00
44872;BME280;30602;51.060;17.226;2023-01-25T07:47:41;103430.23;;;1.95;100.00
44872;BME280;30602;51.060;17.226;2023-01-25T07:51:21;103432.25;;;2.01;100.00
44872;BME280;30602;51.060;17.226;2023-01-25T07:54:37;103434.34;;;1.99;100.00
44872;BME280;30602;51.060;17.226;2023-01-25T07:58:14;103430.47;;;1.97;100.00
44872;BME280;30602;51.060;17.226;2023-01-25T08:01:29;103420.41;;;1.97;100.00
44872;BME280;30602;51.060;17.226;2023-01-25T08:04:46;103421.47;;;2.01;100.00
44872;BME280;30602;51.060;17.226;2023-01-25T08:08:02;103422.14;;;1.98;100.00
44872;BME280;30602;51.060;17.226;2023-01-25T08:11:24;103420.22;;;1.98;100.00
44872;BME280;30602;51.060;17.226;2023-01-25T08:14:37;103409.98;;;1.97;100.00
44872;BME280;30602;51.060;17.226;2023-01-25T08:18:08;103406.94;;;1.99;100.00
44872;BME280;30602;51.060;17.226;2023-01-25T08:21:32;103400.63;;;1.85;100.00
44872;BME280;30602;51.060;17.226;2023-01-25T08:24:44;103403.81;;;1.97;100.00
44872;BME280;30602;51.060;17.226;2023-01-25T08:27:57;103395.59;;;1.98;100.00
44872;BME280;30602;51.060;17.226;2023-01-25T08:31:11;103396.53;;;2.00;100.00
44872;BME280;30602;51.060;17.226;2023-01-25T08:34:44;103402.70;;;2.03;100.00
44872;BME280;30602;51.060;17.226;2023-01-25T08:37:54;103403.75;;;2.07;100.00
44872;BME280;30602;51.060;17.226;2023-01-25T08:41:08;103398.91;;;1.97;100.00
44872;BME280;30602;51.060;17.226;2023-01-25T08:44:20;103393.08;;;2.02;100.00
44872;BME280;30602;51.060;17.226;2023-01-25T08:47:41;103385.78;;;1.99;100.00
44872;BME280;30602;51.060;17.226;2023-01-25T08:51:15;103379.45;;;1.95;100.00
44872;BME280;30602;51.060;17.226;2023-01-25T08:54:28;103371.66;;;2.00;100.00
44872;BME280;30602;51.060;17.226;2023-01-25T08:58:01;103368.20;;;2.04;100.00
44872;BME280;30602;51.060;17.226;2023-01-25T09:01:22;103361.63;;;2.04;100.00
44872;BME280;30602;51.060;17.226;2023-01-25T09:04:39;103359.00;;;2.08;100.00
44872;BME280;30602;51.060;17.226;2023-01-25T09:08:08;103351.94;;;2.01;100.00
44872;BME280;30602;51.060;17.226;2023-01-25T09:11:51;103347.34;;;2.07;100.00
44872;BME280;30602;51.060;17.226;2023-01-25T09:15:28;103349.65;;;2.14;100.00
44872;BME280;30602;51.060;17.226;2023-01-25T09:18:43;103355.58;;;2.11;100.00
44872;BME280;30602;51.060;17.226;2023-01-25T09:21:58;103355.04;;;2.07;100.00
44872;BME280;30602;51.060;17.226;2023-01-25T09:25:14;103348.87;;;2.12;100.00
44872;BME280;30602;51.060;17.226;2023-01-25T09:28:49;103351.54;;;2.14;100.00
44872;BME280;30602;51.060;17.226;2023-01-25T09:32:15;103348.23;;;2.22;100.00
44872;BME280;30602;51.060;17.226;2023-01-25T09:35:49;103340.55;;;2.24;100.00
44872;BME280;30602;51.060;17.226;2023-01-25T09:39:22;103339.59;;;2.19;100.00
44872;BME280;30602;51.060;17.226;2023-01-25T09:45:59;103330.31;;;2.26;100.00
44872;BME280;30602;51.060;17.226;2023-01-25T09:53:23;103322.50;;;2.27;100.00
44872;BME280;30602;51.060;17.226;2023-01-25T09:56:39;103314.49;;;2.28;100.00
44872;BME280;30602;51.060;17.226;2023-01-25T09:59:52;103305.81;;;2.28;100.00
44872;BME280;30602;51.060;17.226;2023-01-25T10:03:15;103306.20;;;2.25;100.00
44872;BME280;30602;51.060;17.226;2023-01-25T10:06:49;103300.21;;;2.25;100.00
44872;BME280;30602;51.060;17.226;2023-01-25T10:10:06;103298.83;;;2.29;100.00
44872;BME280;30602;51.060;17.226;2023-01-25T10:13:36;103298.40;;;2.31;100.00
44872;BME280;30602;51.060;17.226;2023-01-25T10:16:58;103285.70;;;2.31;100.00
44872;BME280;30602;51.060;17.226;2023-01-25T10:34:17;103262.44;;;2.36;99.11
44872;BME280;30602;51.060;17.226;2023-01-25T10:37:35;103269.66;;;2.41;99.37
44872;BME280;30602;51.060;17.226;2023-01-25T10:44:11;103268.05;;;2.44;99.47
44872;BME280;30602;51.060;17.226;2023-01-25T10:47:34;103265.61;;;2.40;99.25
44872;BME280;30602;51.060;17.226;2023-01-25T10:50:55;103263.34;;;2.37;99.07
44872;BME280;30602;51.060;17.226;2023-01-25T10:54:30;103263.21;;;2.35;99.15
44872;BME280;30602;51.060;17.226;2023-01-25T10:57:49;103259.20;;;2.45;99.79
44872;BME280;30602;51.060;17.226;2023-01-25T11:01:11;103252.49;;;2.42;99.57
44872;BME280;30602;51.060;17.226;2023-01-25T11:07:43;103244.48;;;2.42;99.01
44872;BME280;30602;51.060;17.226;2023-01-25T11:10:53;103236.70;;;2.47;98.49
44872;BME280;30602;51.060;17.226;2023-01-25T11:17:40;103221.75;;;2.52;97.83
44872;BME280;30602;51.060;17.226;2023-01-25T11:21:16;103218.73;;;2.55;97.80
44872;BME280;30602;51.060;17.226;2023-01-25T11:24:44;103203.52;;;2.57;97.57
44872;BME280;30602;51.060;17.226;2023-01-25T11:31:22;103192.37;;;2.55;97.05
44872;BME280;30602;51.060;17.226;2023-01-25T11:34:31;103184.59;;;2.51;97.11
44872;BME280;30602;51.060;17.226;2023-01-25T11:41:32;103165.00;;;2.57;98.04
44872;BME280;30602;51.060;17.226;2023-01-25T11:48:46;103150.41;;;2.56;97.55
44872;BME280;30602;51.060;17.226;2023-01-25T11:55:36;103129.73;;;2.59;98.62
44872;BME280;30602;51.060;17.226;2023-01-25T12:26:20;103090.48;;;2.58;95.91
44872;BME280;30602;51.060;17.226;2023-01-25T12:29:51;103084.13;;;2.59;95.90
44872;BME280;30602;51.060;17.226;2023-01-25T12:33:32;103077.55;;;2.57;95.79
44872;BME280;30602;51.060;17.226;2023-01-25T12:36:45;103070.49;;;2.55;95.90
44872;BME280;30602;51.060;17.226;2023-01-25T12:50:34;103056.21;;;2.50;96.47
44872;BME280;30602;51.060;17.226;2023-01-25T12:54:26;103048.34;;;2.54;96.21
44872;BME280;30602;51.060;17.226;2023-01-25T13:01:10;103039.44;;;2.56;96.08
44872;BME280;30602;51.060;17.226;2023-01-25T13:14:36;103026.37;;;2.57;96.06
44872;BME280;30602;51.060;17.226;2023-01-25T13:17:46;103019.91;;;2.57;96.30
44872;BME280;30602;51.060;17.226;2023-01-25T13:21:02;103020.30;;;2.54;96.25
44872;BME280;30602;51.060;17.226;2023-01-25T13:24:24;103014.97;;;2.51;95.85
44872;BME280;30602;51.060;17.226;2023-01-25T13:27:36;103013.52;;;2.49;96.11
44872;BME280;30602;51.060;17.226;2023-01-25T13:34:56;103013.15;;;2.51;96.03
44872;BME280;30602;51.060;17.226;2023-01-25T13:38:30;103010.87;;;2.50;96.04
44872;BME280;30602;51.060;17.226;2023-01-25T13:42:03;103006.18;;;2.48;96.19
44872;BME280;30602;51.060;17.226;2023-01-25T13:45:25;103002.30;;;2.49;96.59
44872;BME280;30602;51.060;17.226;2023-01-25T13:48:41;103000.43;;;2.49;96.36
44872;BME280;30602;51.060;17.226;2023-01-25T13:52:19;102999.91;;;2.50;96.39
44872;BME280;30602;51.060;17.226;2023-01-25T13:58:57;103003.28;;;2.51;96.51
44872;BME280;30602;51.060;17.226;2023-01-25T14:02:12;102998.96;;;2.50;96.51
44872;BME280;30602;51.060;17.226;2023-01-25T14:05:30;102995.55;;;2.46;96.32
44872;BME280;30602;51.060;17.226;2023-01-25T14:09:15;102993.68;;;2.46;96.74
44872;BME280;30602;51.060;17.226;2023-01-25T14:12:37;102987.74;;;2.47;97.18
44872;BME280;30602;51.060;17.226;2023-01-25T14:16:20;102968.91;;;2.37;97.65
44872;BME280;30602;51.060;17.226;2023-01-25T14:19:34;102973.37;;;2.44;97.60
44872;BME280;30602;51.060;17.226;2023-01-25T14:23:29;102971.24;;;2.43;97.52
44872;BME280;30602;51.060;17.226;2023-01-25T14:26:43;102967.21;;;2.45;97.75
44872;BME280;30602;51.060;17.226;2023-01-25T14:30:00;102962.48;;;2.46;97.74
44872;BME280;30602;51.060;17.226;2023-01-25T14:33:24;102955.26;;;2.43;97.49
44872;BME280;30602;51.060;17.226;2023-01-25T14:36:43;102945.02;;;2.48;97.41
44872;BME280;30602;51.060;17.226;2023-01-25T14:39:57;102939.93;;;2.53;97.44
44872;BME280;30602;51.060;17.226;2023-01-25T14:43:09;102934.44;;;2.50;97.29
44872;BME280;30602;51.060;17.226;2023-01-25T14:46:34;102928.36;;;2.49;97.42
44872;BME280;30602;51.060;17.226;2023-01-25T14:49:50;102927.58;;;2.48;97.59
44872;BME280;30602;51.060;17.226;2023-01-25T14:53:15;102918.45;;;2.43;97.99
44872;BME280;30602;51.060;17.226;2023-01-25T14:59:50;102916.56;;;2.39;97.67
44872;BME280;30602;51.060;17.226;2023-01-25T15:03:14;102917.51;;;2.42;97.86
44872;BME280;30602;51.060;17.226;2023-01-25T15:06:29;102906.08;;;2.37;97.47
44872;BME280;30602;51.060;17.226;2023-01-25T15:13:47;102900.87;;;2.34;97.35
44872;BME280;30602;51.060;17.226;2023-01-25T15:17:05;102894.96;;;2.33;97.37
44872;BME280;30602;51.060;17.226;2023-01-25T15:23:48;102883.91;;;2.31;98.05
44872;BME280;30602;51.060;17.226;2023-01-25T15:27:20;102882.96;;;2.35;98.16
44872;BME280;30602;51.060;17.226;2023-01-25T15:30:37;102864.33;;;2.29;98.18
44872;BME280;30602;51.060;17.226;2023-01-25T15:34:08;102882.51;;;2.37;98.55
44872;BME280;30602;51.060;17.226;2023-01-25T15:37:21;102878.91;;;2.36;98.23
44872;BME280;30602;51.060;17.226;2023-01-25T15:40:39;102872.48;;;2.30;98.56
44872;BME280;30602;51.060;17.226;2023-01-25T15:44:39;102869.10;;;2.23;98.64
44872;BME280;30602;51.060;17.226;2023-01-25T15:52:08;102860.13;;;2.24;99.15
44872;BME280;30602;51.060;17.226;2023-01-25T15:55:39;102847.90;;;2.23;98.98
44872;BME280;30602;51.060;17.226;2023-01-25T15:59:22;102847.17;;;2.18;99.24
44872;BME280;30602;51.060;17.226;2023-01-25T16:02:35;102851.24;;;2.22;99.24
44872;BME280;30602;51.060;17.226;2023-01-25T16:06:06;102848.90;;;2.20;99.31
44872;BME280;30602;51.060;17.226;2023-01-25T16:09:58;102841.73;;;2.18;99.54
44872;BME280;30602;51.060;17.226;2023-01-25T16:13:14;102831.90;;;2.18;99.74
44872;BME280;30602;51.060;17.226;2023-01-25T16:16:52;102830.82;;;2.11;99.73
44872;BME280;30602;51.060;17.226;2023-01-25T16:20:18;102831.47;;;2.17;99.98
44872;BME280;30602;51.060;17.226;2023-01-25T16:23:56;102826.73;;;2.20;99.91
44872;BME280;30602;51.060;17.226;2023-01-25T16:27:16;102829.62;;;2.23;99.76
44872;BME280;30602;51.060;17.226;2023-01-25T16:31:15;102824.67;;;2.22;99.35
44872;BME280;30602;51.060;17.226;2023-01-25T16:34:45;102813.16;;;2.11;99.34
44872;BME280;30602;51.060;17.226;2023-01-25T16:38:21;102819.55;;;2.16;99.28
44872;BME280;30602;51.060;17.226;2023-01-25T16:42:12;102817.55;;;2.16;99.49
44872;BME280;30602;51.060;17.226;2023-01-25T16:45:31;102816.04;;;2.16;99.51
44872;BME280;30602;51.060;17.226;2023-01-25T16:48:47;102810.63;;;2.11;99.51
44872;BME280;30602;51.060;17.226;2023-01-25T16:51:57;102813.27;;;2.10;99.88
44872;BME280;30602;51.060;17.226;2023-01-25T16:55:32;102806.09;;;2.08;100.00
44872;BME280;30602;51.060;17.226;2023-01-25T16:58:44;102797.92;;;2.04;100.00
44872;BME280;30602;51.060;17.226;2023-01-25T17:01:55;102796.14;;;2.06;100.00
44872;BME280;30602;51.060;17.226;2023-01-25T17:05:29;102790.95;;;1.98;100.00
44872;BME280;30602;51.060;17.226;2023-01-25T17:09:09;102782.33;;;1.98;100.00
44872;BME280;30602;51.060;17.226;2023-01-25T17:12:22;102775.00;;;2.08;100.00
44872;BME280;30602;51.060;17.226;2023-01-25T17:15:55;102771.50;;;2.08;100.00
44872;BME280;30602;51.060;17.226;2023-01-25T17:19:24;102771.52;;;2.09;100.00
44872;BME280;30602;51.060;17.226;2023-01-25T17:22:54;102767.77;;;2.08;100.00
44872;BME280;30602;51.060;17.226;2023-01-25T17:26:25;102761.09;;;2.04;100.00
44872;BME280;30602;51.060;17.226;2023-01-25T17:29:54;102751.67;;;2.02;100.00
44872;BME280;30602;51.060;17.226;2023-01-25T17:33:46;102752.10;;;2.03;100.00
44872;BME280;30602;51.060;17.226;2023-01-25T17:37:08;102750.52;;;2.04;100.00
44872;BME280;30602;51.060;17.226;2023-01-25T17:40:26;102754.59;;;1.97;100.00
44872;BME280;30602;51.060;17.226;2023-01-25T17:44:49;102753.45;;;1.93;100.00
44872;BME280;30602;51.060;17.226;2023-01-25T17:48:06;102748.70;;;1.94;100.00
44872;BME280;30602;51.060;17.226;2023-01-25T17:51:57;102743.04;;;1.91;100.00
44872;BME280;30602;51.060;17.226;2023-01-25T17:55:27;102736.88;;;1.94;100.00
44872;BME280;30602;51.060;17.226;2023-01-25T17:58:45;102736.17;;;1.93;100.00
44872;BME280;30602;51.060;17.226;2023-01-25T18:01:59;102730.29;;;1.89;100.00
44872;BME280;30602;51.060;17.226;2023-01-25T18:05:19;102707.07;;;1.77;100.00
44872;BME280;30602;51.060;17.226;2023-01-25T18:09:01;102724.57;;;1.96;100.00
44872;BME280;30602;51.060;17.226;2023-01-25T18:12:15;102720.24;;;1.97;100.00
44872;BME280;30602;51.060;17.226;2023-01-25T18:15:35;102722.30;;;1.94;100.00
44872;BME280;30602;51.060;17.226;2023-01-25T18:18:51;102718.66;;;1.91;100.00
44872;BME280;30602;51.060;17.226;2023-01-25T18:22:36;102712.24;;;1.88;100.00
44872;BME280;30602;51.060;17.226;2023-01-25T18:25:59;102706.96;;;1.85;100.00
44872;BME280;30602;51.060;17.226;2023-01-25T18:29:29;102710.28;;;1.82;100.00
44872;BME280;30602;51.060;17.226;2023-01-25T18:32:58;102709.53;;;1.83;100.00
44872;BME280;30602;51.060;17.226;2023-01-25T18:36:36;102705.64;;;1.77;100.00
44872;BME280;30602;51.060;17.226;2023-01-25T18:39:53;102698.16;;;1.78;100.00
44872;BME280;30602;51.060;17.226;2023-01-25T18:43:30;102693.43;;;1.77;100.00
44872;BME280;30602;51.060;17.226;2023-01-25T18:46:43;102674.84;;;1.59;100.00
44872;BME280;30602;51.060;17.226;2023-01-25T18:49:57;102685.31;;;1.73;100.00
44872;BME280;30602;51.060;17.226;2023-01-25T18:53:09;102678.56;;;1.69;100.00
44872;BME280;30602;51.060;17.226;2023-01-25T18:56:24;102678.30;;;1.73;100.00
44872;BME280;30602;51.060;17.226;2023-01-25T18:59:37;102679.99;;;1.75;100.00
44872;BME280;30602;51.060;17.226;2023-01-25T19:02:47;102664.80;;;1.78;100.00
44872;BME280;30602;51.060;17.226;2023-01-25T19:06:08;102664.52;;;1.80;100.00
44872;BME280;30602;51.060;17.226;2023-01-25T19:09:20;102658.31;;;1.80;100.00
44872;BME280;30602;51.060;17.226;2023-01-25T19:12:39;102651.67;;;1.71;100.00
44872;BME280;30602;51.060;17.226;2023-01-25T19:15:46;102647.62;;;1.72;100.00
44872;BME280;30602;51.060;17.226;2023-01-25T19:19:25;102644.99;;;1.73;100.00
44872;BME280;30602;51.060;17.226;2023-01-25T19:23:10;102642.67;;;1.58;100.00
44872;BME280;30602;51.060;17.226;2023-01-25T19:27:05;102640.61;;;1.58;100.00
44872;BME280;30602;51.060;17.226;2023-01-25T19:30:38;102635.64;;;1.68;100.00
44872;BME280;30602;51.060;17.226;2023-01-25T19:34:21;102634.64;;;1.65;100.00
44872;BME280;30602;51.060;17.226;2023-01-25T19:37:40;102633.48;;;1.61;100.00
44872;BME280;30602;51.060;17.226;2023-01-25T19:41:11;102627.02;;;1.56;100.00
44872;BME280;30602;51.060;17.226;2023-01-25T19:44:24;102628.87;;;1.60;100.00
44872;BME280;30602;51.060;17.226;2023-01-25T19:47:38;102625.07;;;1.53;100.00
44872;BME280;30602;51.060;17.226;2023-01-25T19:50:54;102622.73;;;1.62;100.00